Chalfant, California
Current Conditions -  °F | °C
As of 4:56 AM on Friday 19 Dec 2014 (Local Time) from KBIH Reporting Station
Clear Clear  
Wind Chill: 22°   Ceiling: Unl
Heat Index: 27°   Visibility: 10mi
Dew Point: 23°   Wind: 5mph
Humidity: 85%   Direction: 230°SW
Pressure: 30.17"   Gusts: NA
Location:  37.4772°N, 118.401°W
Report Text: KBIH 191256Z AUTO 23004KT 10SM CLR M03/M05 A3017 RMK AO2 SLP219 T10281050
Loading
Personal Weather Stations






























Interactive Weather Map New forecast layout! Learn more

10-Day Weather Forecast

Advertisements
Track Severe Weather on mobile